sensor_id;sensor_type;location;lat;lon;timestamp;temperature;humidity
16643;DHT22;8435;52.184;5.406;2023-04-03T00:02:00;6.60;95.80
16643;DHT22;8435;52.184;5.406;2023-04-03T00:04:27;6.60;95.80
16643;DHT22;8435;52.184;5.406;2023-04-03T00:06:54;6.50;95.80
16643;DHT22;8435;52.184;5.406;2023-04-03T00:09:23;6.50;95.70
16643;DHT22;8435;52.184;5.406;2023-04-03T00:11:49;6.50;95.70
16643;DHT22;8435;52.184;5.406;2023-04-03T00:14:17;6.40;95.70
16643;DHT22;8435;52.184;5.406;2023-04-03T00:16:45;6.50;95.80
16643;DHT22;8435;52.184;5.406;2023-04-03T00:19:11;6.40;95.80
16643;DHT22;8435;52.184;5.406;2023-04-03T00:21:39;6.40;95.80
16643;DHT22;8435;52.184;5.406;2023-04-03T00:24:06;6.40;95.80
16643;DHT22;8435;52.184;5.406;2023-04-03T00:26:33;6.30;95.80
16643;DHT22;8435;52.184;5.406;2023-04-03T00:28:59;6.30;95.80
16643;DHT22;8435;52.184;5.406;2023-04-03T00:31:26;6.30;95.90
16643;DHT22;8435;52.184;5.406;2023-04-03T00:33:54;6.30;95.90
16643;DHT22;8435;52.184;5.406;2023-04-03T00:36:21;6.30;95.90
16643;DHT22;8435;52.184;5.406;2023-04-03T00:38:48;6.20;95.90
16643;DHT22;8435;52.184;5.406;2023-04-03T00:41:15;6.20;95.90
16643;DHT22;8435;52.184;5.406;2023-04-03T00:43:41;6.20;96.00
16643;DHT22;8435;52.184;5.406;2023-04-03T00:46:08;6.20;96.00
16643;DHT22;8435;52.184;5.406;2023-04-03T00:48:38;6.20;96.30
16643;DHT22;8435;52.184;5.406;2023-04-03T00:51:10;6.10;96.10
16643;DHT22;8435;52.184;5.406;2023-04-03T00:53:42;6.10;96.20
16643;DHT22;8435;52.184;5.406;2023-04-03T00:56:12;6.10;96.20
16643;DHT22;8435;52.184;5.406;2023-04-03T00:58:46;6.10;96.20
16643;DHT22;8435;52.184;5.406;2023-04-03T01:01:16;6.10;96.20
16643;DHT22;8435;52.184;5.406;2023-04-03T01:03:44;6.00;96.20
16643;DHT22;8435;52.184;5.406;2023-04-03T01:06:13;6.00;96.20
16643;DHT22;8435;52.184;5.406;2023-04-03T01:08:42;6.00;96.30
16643;DHT22;8435;52.184;5.406;2023-04-03T01:11:09;6.00;96.30
16643;DHT22;8435;52.184;5.406;2023-04-03T01:13:36;5.90;96.30
16643;DHT22;8435;52.184;5.406;2023-04-03T01:16:03;5.90;96.40
16643;DHT22;8435;52.184;5.406;2023-04-03T01:18:31;5.90;96.50
16643;DHT22;8435;52.184;5.406;2023-04-03T01:21:17;5.90;96.60
16643;DHT22;8435;52.184;5.406;2023-04-03T01:26:41;5.80;96.60
16643;DHT22;8435;52.184;5.406;2023-04-03T01:29:08;5.80;96.70
16643;DHT22;8435;52.184;5.406;2023-04-03T01:31:47;5.80;96.70
16643;DHT22;8435;52.184;5.406;2023-04-03T01:34:14;5.80;96.80
16643;DHT22;8435;52.184;5.406;2023-04-03T01:36:41;5.80;96.80
16643;DHT22;8435;52.184;5.406;2023-04-03T01:39:08;5.80;96.80
16643;DHT22;8435;52.184;5.406;2023-04-03T01:41:35;5.70;96.90
16643;DHT22;8435;52.184;5.406;2023-04-03T01:44:02;5.70;96.90
16643;DHT22;8435;52.184;5.406;2023-04-03T01:46:31;5.70;97.00
16643;DHT22;8435;52.184;5.406;2023-04-03T01:48:59;5.70;97.10
16643;DHT22;8435;52.184;5.406;2023-04-03T01:51:26;5.70;97.10
16643;DHT22;8435;52.184;5.406;2023-04-03T01:53:53;5.60;97.10
16643;DHT22;8435;52.184;5.406;2023-04-03T01:56:19;5.60;97.20
16643;DHT22;8435;52.184;5.406;2023-04-03T01:58:49;5.60;97.20
16643;DHT22;8435;52.184;5.406;2023-04-03T02:01:16;5.60;97.20
16643;DHT22;8435;52.184;5.406;2023-04-03T02:03:43;5.60;97.30
16643;DHT22;8435;52.184;5.406;2023-04-03T02:06:11;5.60;97.30
16643;DHT22;8435;52.184;5.406;2023-04-03T02:08:38;5.60;97.40
16643;DHT22;8435;52.184;5.406;2023-04-03T02:11:05;5.50;97.40
16643;DHT22;8435;52.184;5.406;2023-04-03T02:13:32;5.50;97.40
16643;DHT22;8435;52.184;5.406;2023-04-03T02:16:06;5.50;97.40
16643;DHT22;8435;52.184;5.406;2023-04-03T02:18:34;5.50;97.50
16643;DHT22;8435;52.184;5.406;2023-04-03T02:21:00;5.50;97.50
16643;DHT22;8435;52.184;5.406;2023-04-03T02:23:28;5.50;97.60
16643;DHT22;8435;52.184;5.406;2023-04-03T02:26:03;5.40;97.60
16643;DHT22;8435;52.184;5.406;2023-04-03T02:28:30;5.40;97.80
16643;DHT22;8435;52.184;5.406;2023-04-03T02:30:57;5.40;97.80
16643;DHT22;8435;52.184;5.406;2023-04-03T02:33:24;5.40;97.80
16643;DHT22;8435;52.184;5.406;2023-04-03T02:35:53;5.40;97.80
16643;DHT22;8435;52.184;5.406;2023-04-03T02:38:20;5.40;97.80
16643;DHT22;8435;52.184;5.406;2023-04-03T02:40:51;5.30;97.90
16643;DHT22;8435;52.184;5.406;2023-04-03T02:43:18;5.30;98.00
16643;DHT22;8435;52.184;5.406;2023-04-03T02:45:44;5.30;98.00
16643;DHT22;8435;52.184;5.406;2023-04-03T02:48:11;5.30;98.00
16643;DHT22;8435;52.184;5.406;2023-04-03T02:50:40;5.30;98.00
16643;DHT22;8435;52.184;5.406;2023-04-03T02:53:06;5.30;98.20
16643;DHT22;8435;52.184;5.406;2023-04-03T02:55:35;5.30;98.20
16643;DHT22;8435;52.184;5.406;2023-04-03T02:58:03;5.30;98.20
16643;DHT22;8435;52.184;5.406;2023-04-03T03:00:30;5.20;98.20
16643;DHT22;8435;52.184;5.406;2023-04-03T03:02:57;5.20;98.20
16643;DHT22;8435;52.184;5.406;2023-04-03T03:05:24;5.20;98.30
16643;DHT22;8435;52.184;5.406;2023-04-03T03:07:50;5.20;98.30
16643;DHT22;8435;52.184;5.406;2023-04-03T03:10:17;5.20;98.30
16643;DHT22;8435;52.184;5.406;2023-04-03T03:12:46;5.20;98.30
16643;DHT22;8435;52.184;5.406;2023-04-03T03:15:14;5.10;98.40
16643;DHT22;8435;52.184;5.406;2023-04-03T03:17:42;5.10;98.40
16643;DHT22;8435;52.184;5.406;2023-04-03T03:20:10;5.10;98.40
16643;DHT22;8435;52.184;5.406;2023-04-03T03:22:39;5.10;98.50
16643;DHT22;8435;52.184;5.406;2023-04-03T03:25:07;5.10;98.50
16643;DHT22;8435;52.184;5.406;2023-04-03T03:27:34;5.10;98.60
16643;DHT22;8435;52.184;5.406;2023-04-03T03:30:00;5.00;98.60
16643;DHT22;8435;52.184;5.406;2023-04-03T03:32:28;4.90;98.60
16643;DHT22;8435;52.184;5.406;2023-04-03T03:34:55;5.00;98.70
16643;DHT22;8435;52.184;5.406;2023-04-03T03:37:28;5.00;98.70
16643;DHT22;8435;52.184;5.406;2023-04-03T03:39:55;5.00;98.70
16643;DHT22;8435;52.184;5.406;2023-04-03T03:42:22;4.90;98.80
16643;DHT22;8435;52.184;5.406;2023-04-03T03:44:48;4.90;98.80
16643;DHT22;8435;52.184;5.406;2023-04-03T03:47:15;4.90;98.90
16643;DHT22;8435;52.184;5.406;2023-04-03T03:49:43;4.90;98.90
16643;DHT22;8435;52.184;5.406;2023-04-03T03:52:10;4.90;98.90
16643;DHT22;8435;52.184;5.406;2023-04-03T03:54:37;4.90;98.90
16643;DHT22;8435;52.184;5.406;2023-04-03T03:57:04;4.90;99.00
16643;DHT22;8435;52.184;5.406;2023-04-03T03:59:31;4.80;99.00
16643;DHT22;8435;52.184;5.406;2023-04-03T04:01:58;4.80;99.10
16643;DHT22;8435;52.184;5.406;2023-04-03T04:04:25;4.80;99.00
16643;DHT22;8435;52.184;5.406;2023-04-03T04:06:53;4.80;99.10
16643;DHT22;8435;52.184;5.406;2023-04-03T04:09:21;4.80;99.10
16643;DHT22;8435;52.184;5.406;2023-04-03T04:11:48;4.80;99.10
16643;DHT22;8435;52.184;5.406;2023-04-03T04:14:15;4.70;99.20
16643;DHT22;8435;52.184;5.406;2023-04-03T04:16:42;4.70;99.20
16643;DHT22;8435;52.184;5.406;2023-04-03T04:19:09;4.70;99.20
16643;DHT22;8435;52.184;5.406;2023-04-03T04:21:36;4.70;99.20
16643;DHT22;8435;52.184;5.406;2023-04-03T04:24:04;4.70;99.20
16643;DHT22;8435;52.184;5.406;2023-04-03T04:26:31;4.70;99.20
16643;DHT22;8435;52.184;5.406;2023-04-03T04:28:58;4.70;99.20
16643;DHT22;8435;52.184;5.406;2023-04-03T04:31:25;4.60;99.30
16643;DHT22;8435;52.184;5.406;2023-04-03T04:33:52;4.60;99.30
16643;DHT22;8435;52.184;5.406;2023-04-03T04:36:21;4.60;99.30
16643;DHT22;8435;52.184;5.406;2023-04-03T04:38:48;4.60;99.40
16643;DHT22;8435;52.184;5.406;2023-04-03T04:41:19;4.60;99.40
16643;DHT22;8435;52.184;5.406;2023-04-03T04:43:47;4.60;99.40
16643;DHT22;8435;52.184;5.406;2023-04-03T04:46:14;4.60;99.40
16643;DHT22;8435;52.184;5.406;2023-04-03T04:48:41;4.60;99.40
16643;DHT22;8435;52.184;5.406;2023-04-03T04:51:08;4.50;99.40
16643;DHT22;8435;52.184;5.406;2023-04-03T04:53:36;4.50;99.80
16643;DHT22;8435;52.184;5.406;2023-04-03T04:56:05;4.50;99.50
16643;DHT22;8435;52.184;5.406;2023-04-03T04:58:36;4.50;99.50
16643;DHT22;8435;52.184;5.406;2023-04-03T05:01:05;4.50;99.50
16643;DHT22;8435;52.184;5.406;2023-04-03T05:03:32;4.50;99.50
16643;DHT22;8435;52.184;5.406;2023-04-03T05:05:59;4.40;99.60
16643;DHT22;8435;52.184;5.406;2023-04-03T05:08:26;4.40;99.50
16643;DHT22;8435;52.184;5.406;2023-04-03T05:10:53;4.40;99.70
16643;DHT22;8435;52.184;5.406;2023-04-03T05:13:20;4.40;99.60
16643;DHT22;8435;52.184;5.406;2023-04-03T05:15:48;4.40;99.60
16643;DHT22;8435;52.184;5.406;2023-04-03T05:18:15;4.40;99.80
16643;DHT22;8435;52.184;5.406;2023-04-03T05:20:41;4.40;99.70
16643;DHT22;8435;52.184;5.406;2023-04-03T05:23:09;4.40;99.60
16643;DHT22;8435;52.184;5.406;2023-04-03T05:25:37;4.40;99.60
16643;DHT22;8435;52.184;5.406;2023-04-03T05:28:04;4.40;99.60
16643;DHT22;8435;52.184;5.406;2023-04-03T05:30:31;4.40;99.50
16643;DHT22;8435;52.184;5.406;2023-04-03T05:32:59;4.40;99.60
16643;DHT22;8435;52.184;5.406;2023-04-03T05:35:26;4.40;99.70
16643;DHT22;8435;52.184;5.406;2023-04-03T05:37:53;4.40;99.70
16643;DHT22;8435;52.184;5.406;2023-04-03T05:40:20;4.40;99.60
16643;DHT22;8435;52.184;5.406;2023-04-03T05:42:47;4.40;99.60
16643;DHT22;8435;52.184;5.406;2023-04-03T05:45:13;4.40;99.70
16643;DHT22;8435;52.184;5.406;2023-04-03T05:47:40;4.40;99.70
16643;DHT22;8435;52.184;5.406;2023-04-03T05:50:09;4.40;99.90
16643;DHT22;8435;52.184;5.406;2023-04-03T05:52:38;4.40;99.90
16643;DHT22;8435;52.184;5.406;2023-04-03T05:55:07;4.50;99.90
16643;DHT22;8435;52.184;5.406;2023-04-03T05:57:34;4.60;99.90
16643;DHT22;8435;52.184;5.406;2023-04-03T06:00:01;4.70;99.90
16643;DHT22;8435;52.184;5.406;2023-04-03T06:02:28;4.70;99.90
16643;DHT22;8435;52.184;5.406;2023-04-03T06:04:56;4.80;99.90
16643;DHT22;8435;52.184;5.406;2023-04-03T06:07:25;4.90;99.90
16643;DHT22;8435;52.184;5.406;2023-04-03T06:09:54;5.00;99.80
16643;DHT22;8435;52.184;5.406;2023-04-03T06:12:22;5.10;99.70
16643;DHT22;8435;52.184;5.406;2023-04-03T06:14:51;5.10;99.70
16643;DHT22;8435;52.184;5.406;2023-04-03T06:17:18;5.20;99.80
16643;DHT22;8435;52.184;5.406;2023-04-03T06:19:46;5.30;99.80
16643;DHT22;8435;52.184;5.406;2023-04-03T06:22:13;5.50;99.90
16643;DHT22;8435;52.184;5.406;2023-04-03T06:24:42;5.70;99.90
16643;DHT22;8435;52.184;5.406;2023-04-03T06:27:09;5.80;99.70
16643;DHT22;8435;52.184;5.406;2023-04-03T06:29:36;6.00;99.60
16643;DHT22;8435;52.184;5.406;2023-04-03T06:32:03;6.10;99.40
16643;DHT22;8435;52.184;5.406;2023-04-03T06:34:30;6.30;99.40
16643;DHT22;8435;52.184;5.406;2023-04-03T06:36:57;6.50;99.30
16643;DHT22;8435;52.184;5.406;2023-04-03T06:39:24;6.60;98.70
16643;DHT22;8435;52.184;5.406;2023-04-03T06:41:52;6.70;98.60
16643;DHT22;8435;52.184;5.406;2023-04-03T06:44:20;6.80;98.40
16643;DHT22;8435;52.184;5.406;2023-04-03T06:46:46;6.90;98.30
16643;DHT22;8435;52.184;5.406;2023-04-03T06:49:13;7.00;98.60
16643;DHT22;8435;52.184;5.406;2023-04-03T06:51:40;7.20;98.80
16643;DHT22;8435;52.184;5.406;2023-04-03T06:54:07;7.40;98.50
16643;DHT22;8435;52.184;5.406;2023-04-03T06:56:34;7.70;98.00
16643;DHT22;8435;52.184;5.406;2023-04-03T06:59:03;7.90;98.20
16643;DHT22;8435;52.184;5.406;2023-04-03T07:01:30;8.20;98.00
16643;DHT22;8435;52.184;5.406;2023-04-03T07:03:59;8.40;97.60
16643;DHT22;8435;52.184;5.406;2023-04-03T07:06:29;8.50;97.50
16643;DHT22;8435;52.184;5.406;2023-04-03T07:08:57;8.70;97.30
16643;DHT22;8435;52.184;5.406;2023-04-03T07:11:24;8.80;96.80
16643;DHT22;8435;52.184;5.406;2023-04-03T07:13:51;8.90;96.80
16643;DHT22;8435;52.184;5.406;2023-04-03T07:16:20;9.00;96.70
16643;DHT22;8435;52.184;5.406;2023-04-03T07:18:49;9.10;96.30
16643;DHT22;8435;52.184;5.406;2023-04-03T07:21:16;9.20;96.20
16643;DHT22;8435;52.184;5.406;2023-04-03T07:23:43;9.20;96.00
16643;DHT22;8435;52.184;5.406;2023-04-03T07:26:10;9.30;95.20
16643;DHT22;8435;52.184;5.406;2023-04-03T07:28:37;9.30;95.20
16643;DHT22;8435;52.184;5.406;2023-04-03T07:31:07;9.40;95.70
16643;DHT22;8435;52.184;5.406;2023-04-03T07:33:35;9.40;95.20
16643;DHT22;8435;52.184;5.406;2023-04-03T07:36:03;9.50;95.60
16643;DHT22;8435;52.184;5.406;2023-04-03T07:38:30;9.70;95.60
16643;DHT22;8435;52.184;5.406;2023-04-03T07:40:57;9.90;96.00
16643;DHT22;8435;52.184;5.406;2023-04-03T07:43:24;10.10;95.60
16643;DHT22;8435;52.184;5.406;2023-04-03T07:45:51;10.40;95.30
16643;DHT22;8435;52.184;5.406;2023-04-03T07:48:21;10.60;95.30
16643;DHT22;8435;52.184;5.406;2023-04-03T07:50:52;10.90;94.30
16643;DHT22;8435;52.184;5.406;2023-04-03T07:53:23;11.20;94.60
16643;DHT22;8435;52.184;5.406;2023-04-03T07:55:50;11.40;94.80
16643;DHT22;8435;52.184;5.406;2023-04-03T07:58:21;11.80;94.50
16643;DHT22;8435;52.184;5.406;2023-04-03T08:00:48;12.10;94.50
16643;DHT22;8435;52.184;5.406;2023-04-03T08:03:15;12.40;94.20
16643;DHT22;8435;52.184;5.406;2023-04-03T08:05:46;12.70;94.10
16643;DHT22;8435;52.184;5.406;2023-04-03T08:08:17;13.00;92.60
16643;DHT22;8435;52.184;5.406;2023-04-03T08:10:48;13.20;91.90
16643;DHT22;8435;52.184;5.406;2023-04-03T08:13:16;13.50;91.90
16643;DHT22;8435;52.184;5.406;2023-04-03T08:15:45;13.60;91.70
16643;DHT22;8435;52.184;5.406;2023-04-03T08:18:12;13.70;90.30
16643;DHT22;8435;52.184;5.406;2023-04-03T08:20:40;13.80;90.50
16643;DHT22;8435;52.184;5.406;2023-04-03T08:23:07;13.90;90.00
16643;DHT22;8435;52.184;5.406;2023-04-03T08:25:37;14.00;89.10
16643;DHT22;8435;52.184;5.406;2023-04-03T08:28:05;14.00;85.80
16643;DHT22;8435;52.184;5.406;2023-04-03T08:30:39;14.00;84.40
16643;DHT22;8435;52.184;5.406;2023-04-03T08:33:06;14.00;86.20
16643;DHT22;8435;52.184;5.406;2023-04-03T08:35:33;14.10;87.50
16643;DHT22;8435;52.184;5.406;2023-04-03T08:38:02;14.10;85.20
16643;DHT22;8435;52.184;5.406;2023-04-03T08:40:29;14.10;81.80
16643;DHT22;8435;52.184;5.406;2023-04-03T08:43:03;14.10;82.30
16643;DHT22;8435;52.184;5.406;2023-04-03T08:45:42;14.20;79.40
16643;DHT22;8435;52.184;5.406;2023-04-03T08:48:13;14.10;77.40
16643;DHT22;8435;52.184;5.406;2023-04-03T08:50:44;14.10;80.20
16643;DHT22;8435;52.184;5.406;2023-04-03T08:53:17;14.10;76.40
16643;DHT22;8435;52.184;5.406;2023-04-03T08:55:49;14.00;77.00
16643;DHT22;8435;52.184;5.406;2023-04-03T08:58:19;14.00;75.20
16643;DHT22;8435;52.184;5.406;2023-04-03T09:00:50;14.00;74.30
16643;DHT22;8435;52.184;5.406;2023-04-03T09:03:21;13.90;74.60
16643;DHT22;8435;52.184;5.406;2023-04-03T09:05:55;13.80;74.20
16643;DHT22;8435;52.184;5.406;2023-04-03T09:08:27;13.90;73.70
16643;DHT22;8435;52.184;5.406;2023-04-03T09:11:04;14.00;73.40
16643;DHT22;8435;52.184;5.406;2023-04-03T09:13:39;13.90;68.50
16643;DHT22;8435;52.184;5.406;2023-04-03T09:16:21;14.00;67.20
16643;DHT22;8435;52.184;5.406;2023-04-03T09:19:01;13.90;69.00
16643;DHT22;8435;52.184;5.406;2023-04-03T09:21:38;13.90;69.00
16643;DHT22;8435;52.184;5.406;2023-04-03T09:24:09;13.90;68.80
16643;DHT22;8435;52.184;5.406;2023-04-03T09:26:42;13.90;66.40
16643;DHT22;8435;52.184;5.406;2023-04-03T09:29:15;13.90;66.20
16643;DHT22;8435;52.184;5.406;2023-04-03T09:31:44;14.00;67.40
16643;DHT22;8435;52.184;5.406;2023-04-03T09:34:18;14.00;64.50
16643;DHT22;8435;52.184;5.406;2023-04-03T09:36:48;14.00;62.00
16643;DHT22;8435;52.184;5.406;2023-04-03T09:39:17;14.00;59.90
16643;DHT22;8435;52.184;5.406;2023-04-03T09:41:56;13.90;63.70
16643;DHT22;8435;52.184;5.406;2023-04-03T09:44:26;13.80;61.70
16643;DHT22;8435;52.184;5.406;2023-04-03T09:46:53;13.70;63.30
16643;DHT22;8435;52.184;5.406;2023-04-03T09:49:21;13.60;62.20
16643;DHT22;8435;52.184;5.406;2023-04-03T09:51:47;13.40;59.10
16643;DHT22;8435;52.184;5.406;2023-04-03T09:54:36;13.20;60.40
16643;DHT22;8435;52.184;5.406;2023-04-03T09:57:09;13.00;60.70
16643;DHT22;8435;52.184;5.406;2023-04-03T09:59:45;12.90;59.50
16643;DHT22;8435;52.184;5.406;2023-04-03T10:02:30;12.70;57.70
16643;DHT22;8435;52.184;5.406;2023-04-03T10:05:01;12.60;58.10
16643;DHT22;8435;52.184;5.406;2023-04-03T10:07:34;12.40;60.20
16643;DHT22;8435;52.184;5.406;2023-04-03T10:10:19;12.30;60.50
16643;DHT22;8435;52.184;5.406;2023-04-03T10:12:49;12.20;61.40
16643;DHT22;8435;52.184;5.406;2023-04-03T10:15:36;12.10;62.90
16643;DHT22;8435;52.184;5.406;2023-04-03T10:18:07;12.10;61.30
16643;DHT22;8435;52.184;5.406;2023-04-03T10:20:39;12.00;61.30
16643;DHT22;8435;52.184;5.406;2023-04-03T10:23:16;12.00;58.40
16643;DHT22;8435;52.184;5.406;2023-04-03T10:25:52;11.90;58.20
16643;DHT22;8435;52.184;5.406;2023-04-03T10:28:30;11.90;59.90
16643;DHT22;8435;52.184;5.406;2023-04-03T10:31:06;11.80;57.00
16643;DHT22;8435;52.184;5.406;2023-04-03T10:33:48;11.70;56.20
16643;DHT22;8435;52.184;5.406;2023-04-03T10:36:28;11.70;58.60
16643;DHT22;8435;52.184;5.406;2023-04-03T10:39:02;11.70;59.70
16643;DHT22;8435;52.184;5.406;2023-04-03T10:41:45;11.60;58.10
16643;DHT22;8435;52.184;5.406;2023-04-03T10:44:19;11.60;55.90
16643;DHT22;8435;52.184;5.406;2023-04-03T10:46:50;11.60;56.70
16643;DHT22;8435;52.184;5.406;2023-04-03T10:49:32;11.60;57.30
16643;DHT22;8435;52.184;5.406;2023-04-03T10:52:11;11.60;57.80
16643;DHT22;8435;52.184;5.406;2023-04-03T10:54:43;11.50;55.90
16643;DHT22;8435;52.184;5.406;2023-04-03T10:57:14;11.50;57.20
16643;DHT22;8435;52.184;5.406;2023-04-03T10:59:44;11.50;57.80
16643;DHT22;8435;52.184;5.406;2023-04-03T11:02:18;11.50;59.00
16643;DHT22;8435;52.184;5.406;2023-04-03T11:04:52;11.50;57.90
16643;DHT22;8435;52.184;5.406;2023-04-03T11:07:24;11.50;60.00
16643;DHT22;8435;52.184;5.406;2023-04-03T11:09:55;11.40;58.30
16643;DHT22;8435;52.184;5.406;2023-04-03T11:12:26;11.50;58.00
16643;DHT22;8435;52.184;5.406;2023-04-03T11:14:56;11.60;60.30
16643;DHT22;8435;52.184;5.406;2023-04-03T11:17:30;11.60;58.10
16643;DHT22;8435;52.184;5.406;2023-04-03T11:20:04;11.60;59.00
16643;DHT22;8435;52.184;5.406;2023-04-03T11:22:34;11.70;57.40
16643;DHT22;8435;52.184;5.406;2023-04-03T11:25:08;11.70;56.50
16643;DHT22;8435;52.184;5.406;2023-04-03T11:27:43;11.70;57.30
16643;DHT22;8435;52.184;5.406;2023-04-03T11:30:15;11.70;59.20
16643;DHT22;8435;52.184;5.406;2023-04-03T11:32:59;11.60;57.80
16643;DHT22;8435;52.184;5.406;2023-04-03T11:35:28;11.70;57.20
16643;DHT22;8435;52.184;5.406;2023-04-03T11:37:56;11.70;57.80
16643;DHT22;8435;52.184;5.406;2023-04-03T11:40:25;11.70;59.20
16643;DHT22;8435;52.184;5.406;2023-04-03T11:42:55;11.70;58.10
16643;DHT22;8435;52.184;5.406;2023-04-03T11:45:35;11.70;58.10
16643;DHT22;8435;52.184;5.406;2023-04-03T11:48:05;11.70;59.20
16643;DHT22;8435;52.184;5.406;2023-04-03T11:50:44;11.80;58.40
16643;DHT22;8435;52.184;5.406;2023-04-03T11:53:34;11.80;58.90
16643;DHT22;8435;52.184;5.406;2023-04-03T11:56:27;11.80;59.80
16643;DHT22;8435;52.184;5.406;2023-04-03T11:59:22;11.90;58.90
16643;DHT22;8435;52.184;5.406;2023-04-03T12:01:50;11.90;57.70
16643;DHT22;8435;52.184;5.406;2023-04-03T12:04:20;11.90;58.30
16643;DHT22;8435;52.184;5.406;2023-04-03T12:09:57;11.90;58.30
16643;DHT22;8435;52.184;5.406;2023-04-03T12:12:31;12.00;58.60
16643;DHT22;8435;52.184;5.406;2023-04-03T12:15:18;12.00;60.40
16643;DHT22;8435;52.184;5.406;2023-04-03T12:17:48;12.00;60.30
16643;DHT22;8435;52.184;5.406;2023-04-03T12:20:56;12.00;58.80
16643;DHT22;8435;52.184;5.406;2023-04-03T12:23:28;12.10;57.90
16643;DHT22;8435;52.184;5.406;2023-04-03T12:26:02;12.10;58.60
16643;DHT22;8435;52.184;5.406;2023-04-03T12:28:35;12.10;57.30
16643;DHT22;8435;52.184;5.406;2023-04-03T12:31:04;12.10;56.80
16643;DHT22;8435;52.184;5.406;2023-04-03T12:33:38;12.00;58.50
16643;DHT22;8435;52.184;5.406;2023-04-03T12:36:17;12.00;57.70
16643;DHT22;8435;52.184;5.406;2023-04-03T12:39:24;12.10;59.60
16643;DHT22;8435;52.184;5.406;2023-04-03T12:42:00;12.00;58.30
16643;DHT22;8435;52.184;5.406;2023-04-03T12:44:45;12.00;59.60
16643;DHT22;8435;52.184;5.406;2023-04-03T12:47:25;12.10;58.60
16643;DHT22;8435;52.184;5.406;2023-04-03T12:49:59;12.10;58.20
16643;DHT22;8435;52.184;5.406;2023-04-03T12:52:35;12.10;58.10
16643;DHT22;8435;52.184;5.406;2023-04-03T12:55:12;12.20;59.10
16643;DHT22;8435;52.184;5.406;2023-04-03T12:57:40;12.20;57.90
16643;DHT22;8435;52.184;5.406;2023-04-03T13:00:29;12.20;58.60
16643;DHT22;8435;52.184;5.406;2023-04-03T13:02:59;12.20;57.50
16643;DHT22;8435;52.184;5.406;2023-04-03T13:05:27;12.20;58.50
16643;DHT22;8435;52.184;5.406;2023-04-03T13:07:59;12.20;58.10
16643;DHT22;8435;52.184;5.406;2023-04-03T13:10:29;12.20;59.70
16643;DHT22;8435;52.184;5.406;2023-04-03T13:12:58;12.20;60.00
16643;DHT22;8435;52.184;5.406;2023-04-03T13:15:27;12.30;59.50
16643;DHT22;8435;52.184;5.406;2023-04-03T13:17:55;12.30;59.50
16643;DHT22;8435;52.184;5.406;2023-04-03T13:20:25;12.30;57.90
16643;DHT22;8435;52.184;5.406;2023-04-03T13:23:04;12.30;59.60
16643;DHT22;8435;52.184;5.406;2023-04-03T13:25:33;12.30;59.80
16643;DHT22;8435;52.184;5.406;2023-04-03T13:28:03;12.40;59.90
16643;DHT22;8435;52.184;5.406;2023-04-03T13:30:35;12.40;58.60
16643;DHT22;8435;52.184;5.406;2023-04-03T13:33:05;12.40;58.40
16643;DHT22;8435;52.184;5.406;2023-04-03T13:35:36;12.40;57.30
16643;DHT22;8435;52.184;5.406;2023-04-03T13:38:21;12.30;57.20
16643;DHT22;8435;52.184;5.406;2023-04-03T13:40:50;12.40;59.00
16643;DHT22;8435;52.184;5.406;2023-04-03T13:43:20;12.40;59.00
16643;DHT22;8435;52.184;5.406;2023-04-03T13:45:57;12.40;59.40
16643;DHT22;8435;52.184;5.406;2023-04-03T13:48:25;12.40;58.70
16643;DHT22;8435;52.184;5.406;2023-04-03T13:50:58;12.40;59.40
16643;DHT22;8435;52.184;5.406;2023-04-03T13:53:32;12.40;58.80
16643;DHT22;8435;52.184;5.406;2023-04-03T13:56:05;12.40;58.30
16643;DHT22;8435;52.184;5.406;2023-04-03T13:58:34;12.40;57.00
16643;DHT22;8435;52.184;5.406;2023-04-03T14:01:08;12.40;59.40
16643;DHT22;8435;52.184;5.406;2023-04-03T14:03:41;12.40;58.40
16643;DHT22;8435;52.184;5.406;2023-04-03T14:06:11;12.40;58.90
16643;DHT22;8435;52.184;5.406;2023-04-03T14:08:39;12.40;58.80
16643;DHT22;8435;52.184;5.406;2023-04-03T14:11:11;12.40;59.10
16643;DHT22;8435;52.184;5.406;2023-04-03T14:13:39;12.40;58.00
16643;DHT22;8435;52.184;5.406;2023-04-03T14:16:06;12.40;57.90
16643;DHT22;8435;52.184;5.406;2023-04-03T14:18:38;12.40;58.40
16643;DHT22;8435;52.184;5.406;2023-04-03T14:21:05;12.40;58.90
16643;DHT22;8435;52.184;5.406;2023-04-03T14:23:32;12.40;58.60
16643;DHT22;8435;52.184;5.406;2023-04-03T14:26:04;12.40;59.20
16643;DHT22;8435;52.184;5.406;2023-04-03T14:28:31;12.40;60.40
16643;DHT22;8435;52.184;5.406;2023-04-03T14:30:59;12.40;60.80
16643;DHT22;8435;52.184;5.406;2023-04-03T14:33:26;12.40;60.70
16643;DHT22;8435;52.184;5.406;2023-04-03T14:35:58;12.40;59.50
16643;DHT22;8435;52.184;5.406;2023-04-03T14:38:28;12.40;60.20
16643;DHT22;8435;52.184;5.406;2023-04-03T14:40:56;12.50;60.40
16643;DHT22;8435;52.184;5.406;2023-04-03T14:43:24;12.50;59.70
16643;DHT22;8435;52.184;5.406;2023-04-03T14:45:51;12.50;59.80
16643;DHT22;8435;52.184;5.406;2023-04-03T14:48:22;12.50;59.80
16643;DHT22;8435;52.184;5.406;2023-04-03T14:50:51;12.50;60.90
16643;DHT22;8435;52.184;5.406;2023-04-03T14:53:18;12.50;61.30
16643;DHT22;8435;52.184;5.406;2023-04-03T14:55:49;12.50;60.50
16643;DHT22;8435;52.184;5.406;2023-04-03T14:58:17;12.50;60.70
16643;DHT22;8435;52.184;5.406;2023-04-03T15:00:46;12.50;59.40
16643;DHT22;8435;52.184;5.406;2023-04-03T15:03:15;12.50;61.00
16643;DHT22;8435;52.184;5.406;2023-04-03T15:05:42;12.50;58.70
16643;DHT22;8435;52.184;5.406;2023-04-03T15:08:18;12.50;59.10
16643;DHT22;8435;52.184;5.406;2023-04-03T15:10:49;12.50;59.90
16643;DHT22;8435;52.184;5.406;2023-04-03T15:13:18;12.50;60.00
16643;DHT22;8435;52.184;5.406;2023-04-03T15:15:47;12.50;60.90
16643;DHT22;8435;52.184;5.406;2023-04-03T15:18:18;12.50;60.60
16643;DHT22;8435;52.184;5.406;2023-04-03T15:20:45;12.50;59.90
16643;DHT22;8435;52.184;5.406;2023-04-03T15:23:14;12.50;60.60
16643;DHT22;8435;52.184;5.406;2023-04-03T15:25:42;12.50;60.40
16643;DHT22;8435;52.184;5.406;2023-04-03T15:28:11;12.40;60.40
16643;DHT22;8435;52.184;5.406;2023-04-03T15:30:40;12.50;60.20
16643;DHT22;8435;52.184;5.406;2023-04-03T15:33:09;12.50;59.90
16643;DHT22;8435;52.184;5.406;2023-04-03T15:35:36;12.50;60.10
16643;DHT22;8435;52.184;5.406;2023-04-03T15:38:03;12.40;59.40
16643;DHT22;8435;52.184;5.406;2023-04-03T15:40:29;12.40;60.30
16643;DHT22;8435;52.184;5.406;2023-04-03T15:42:56;12.30;59.40
16643;DHT22;8435;52.184;5.406;2023-04-03T15:45:28;12.30;59.60
16643;DHT22;8435;52.184;5.406;2023-04-03T15:47:55;12.30;60.80
16643;DHT22;8435;52.184;5.406;2023-04-03T15:50:24;12.30;61.30
16643;DHT22;8435;52.184;5.406;2023-04-03T15:52:51;12.20;60.60
16643;DHT22;8435;52.184;5.406;2023-04-03T15:55:20;12.20;61.50
16643;DHT22;8435;52.184;5.406;2023-04-03T15:57:47;12.20;61.90
16643;DHT22;8435;52.184;5.406;2023-04-03T16:00:14;12.20;61.80
16643;DHT22;8435;52.184;5.406;2023-04-03T16:02:42;12.20;60.60
16643;DHT22;8435;52.184;5.406;2023-04-03T16:05:10;12.20;60.90
16643;DHT22;8435;52.184;5.406;2023-04-03T16:07:38;12.20;60.70
16643;DHT22;8435;52.184;5.406;2023-04-03T16:10:07;12.10;62.10
16643;DHT22;8435;52.184;5.406;2023-04-03T16:12:34;12.10;62.20
16643;DHT22;8435;52.184;5.406;2023-04-03T16:15:02;12.10;61.60
16643;DHT22;8435;52.184;5.406;2023-04-03T16:17:30;12.10;61.80